createdAt,value
2022-08-01T00:00:52.009Z,20.60
2022-08-01T00:03:19.943Z,20.60
2022-08-01T00:05:49.823Z,20.60
2022-08-01T00:08:17.718Z,20.60
2022-08-01T00:10:45.615Z,20.50
2022-08-01T00:13:13.451Z,20.50
2022-08-01T00:15:41.281Z,20.40
2022-08-01T00:18:19.718Z,20.40
2022-08-01T00:20:48.895Z,20.40
2022-08-01T00:23:16.691Z,20.40
2022-08-01T00:25:45.347Z,20.40
2022-08-01T00:28:14.409Z,20.30
2022-08-01T00:30:42.381Z,20.30
2022-08-01T00:33:10.262Z,20.20
2022-08-01T00:35:38.043Z,20.20
2022-08-01T00:38:07.313Z,20.20
2022-08-01T00:40:35.246Z,20.20
2022-08-01T00:43:03.075Z,20.10
2022-08-01T00:45:30.933Z,20.10
2022-08-01T00:47:58.812Z,20.10
2022-08-01T00:50:26.851Z,20.10
2022-08-01T00:52:56.769Z,20.10
2022-08-01T00:55:26.495Z,20.00
2022-08-01T00:58:02.384Z,20.00
2022-08-01T01:00:32.904Z,20.00
2022-08-01T01:03:02.909Z,20.00
2022-08-01T01:05:37.430Z,19.90
2022-08-01T01:08:10.615Z,19.90
2022-08-01T01:10:45.451Z,19.90
2022-08-01T01:13:25.154Z,19.80
2022-08-01T01:15:59.737Z,19.80
2022-08-01T01:18:34.620Z,19.80
2022-08-01T01:21:09.026Z,19.80
2022-08-01T01:23:47.983Z,19.80
2022-08-01T01:26:38.844Z,19.70
2022-08-01T01:29:15.376Z,19.70
2022-08-01T01:31:48.156Z,19.70
2022-08-01T01:34:19.059Z,19.70
2022-08-01T01:36:49.340Z,19.60
2022-08-01T01:39:18.046Z,19.60
2022-08-01T01:41:47.622Z,19.60
2022-08-01T01:44:18.104Z,19.60
2022-08-01T01:46:47.100Z,19.60
2022-08-01T01:49:15.960Z,19.60
2022-08-01T01:51:53.295Z,19.50
2022-08-01T01:54:34.697Z,19.50
2022-08-01T01:57:05.242Z,19.40
2022-08-01T01:59:37.022Z,19.40
2022-08-01T02:02:07.458Z,19.40
2022-08-01T02:04:38.420Z,19.40
2022-08-01T02:07:09.842Z,19.40
2022-08-01T02:09:39.265Z,19.40
2022-08-01T02:12:09.250Z,19.40
2022-08-01T02:14:40.961Z,19.40
2022-08-01T02:17:10.925Z,19.40
2022-08-01T02:19:39.895Z,19.30
2022-08-01T02:22:12.127Z,19.40
2022-08-01T02:24:44.481Z,19.30
2022-08-01T02:27:16.595Z,19.30
2022-08-01T02:29:51.910Z,19.20
2022-08-01T02:32:29.039Z,19.30
2022-08-01T02:34:59.464Z,19.20
2022-08-01T02:37:30.839Z,19.20
2022-08-01T02:39:58.708Z,19.20
2022-08-01T02:42:30.777Z,19.10
2022-08-01T02:45:00.435Z,19.10
2022-08-01T02:47:31.091Z,19.10
2022-08-01T02:50:00.773Z,19.20
2022-08-01T02:52:30.507Z,19.10
2022-08-01T02:54:59.716Z,19.10
2022-08-01T02:57:39.495Z,19.10
2022-08-01T03:00:19.949Z,19.10
2022-08-01T03:02:51.429Z,19.20
2022-08-01T03:05:19.796Z,19.20
2022-08-01T03:07:48.781Z,19.10
2022-08-01T03:10:18.724Z,19.10
2022-08-01T03:12:48.647Z,19.10
2022-08-01T03:15:18.996Z,19.10
2022-08-01T03:17:48.799Z,19.10
2022-08-01T03:20:18.595Z,19.10
2022-08-01T03:22:48.354Z,19.10
2022-08-01T03:25:18.335Z,19.10
2022-08-01T03:27:49.800Z,19.10
2022-08-01T03:30:19.842Z,19.10
2022-08-01T03:32:47.748Z,19.10
2022-08-01T03:35:15.640Z,19.10
2022-08-01T03:38:14.221Z,19.00
2022-08-01T03:40:39.060Z,19.00
2022-08-01T03:43:10.899Z,19.00
2022-08-01T03:45:42.965Z,18.90
2022-08-01T03:48:13.880Z,18.90
2022-08-01T03:50:44.906Z,18.90
2022-08-01T03:53:13.723Z,18.80
2022-08-01T03:55:44.474Z,18.80
2022-08-01T03:58:13.615Z,18.70
2022-08-01T04:00:43.887Z,18.70
2022-08-01T04:03:15.495Z,18.70
2022-08-01T04:05:44.147Z,18.70
2022-08-01T04:08:12.125Z,18.70
2022-08-01T04:10:40.388Z,18.70
2022-08-01T04:13:08.258Z,18.70
2022-08-01T04:15:37.103Z,18.70
2022-08-01T04:18:07.682Z,18.70
2022-08-01T04:20:35.506Z,18.70
2022-08-01T04:23:04.510Z,18.70
2022-08-01T04:25:35.868Z,18.80
2022-08-01T04:28:06.367Z,18.80
2022-08-01T04:30:37.951Z,18.80
2022-08-01T04:33:10.482Z,18.80
2022-08-01T04:36:04.009Z,18.90
2022-08-01T04:38:32.556Z,18.90
2022-08-01T04:41:08.467Z,19.00
2022-08-01T04:43:38.256Z,19.00
2022-08-01T04:46:07.670Z,19.00
2022-08-01T04:48:39.375Z,19.00
2022-08-01T04:51:16.019Z,19.10
2022-08-01T04:53:44.833Z,19.20
2022-08-01T04:56:14.028Z,19.20
2022-08-01T04:58:42.729Z,19.30
2022-08-01T05:01:11.477Z,19.40
2022-08-01T05:03:40.746Z,19.40
2022-08-01T05:06:08.700Z,19.50
2022-08-01T05:08:36.982Z,19.50
2022-08-01T05:11:05.163Z,19.60
2022-08-01T05:13:32.993Z,19.70
2022-08-01T05:16:01.001Z,19.70
2022-08-01T05:18:28.927Z,19.80
2022-08-01T05:20:58.094Z,19.90
2022-08-01T05:23:42.579Z,19.90
2022-08-01T05:26:14.590Z,20.00
2022-08-01T05:28:42.776Z,20.00
2022-08-01T05:31:10.622Z,20.10
2022-08-01T05:33:39.163Z,20.10
2022-08-01T05:36:08.657Z,20.20
2022-08-01T05:38:36.527Z,20.30
2022-08-01T05:41:04.627Z,20.40
2022-08-01T05:43:32.514Z,20.40
2022-08-01T05:46:00.350Z,20.40
2022-08-01T05:48:28.250Z,20.30
2022-08-01T05:50:58.737Z,20.40
2022-08-01T05:53:28.506Z,20.50
2022-08-01T05:55:56.426Z,20.60
2022-08-01T05:58:24.621Z,20.80
2022-08-01T06:00:52.507Z,20.90
2022-08-01T06:03:20.715Z,21.10
2022-08-01T06:05:48.623Z,21.20
2022-08-01T06:08:16.462Z,21.30
2022-08-01T06:10:45.738Z,21.40
2022-08-01T06:13:13.562Z,21.50
2022-08-01T06:15:41.677Z,21.60
2022-08-01T06:18:09.471Z,21.60
2022-08-01T06:20:37.314Z,21.70
2022-08-01T06:23:12.202Z,21.80
2022-08-01T06:25:56.058Z,21.90
2022-08-01T06:28:24.232Z,22.10
2022-08-01T06:30:52.536Z,22.10
2022-08-01T06:33:20.433Z,22.20
2022-08-01T06:35:48.930Z,22.30
2022-08-01T06:38:16.829Z,22.30
2022-08-01T06:40:44.763Z,22.40
2022-08-01T06:43:14.103Z,22.50
2022-08-01T06:45:42.305Z,22.50
2022-08-01T06:48:10.397Z,22.60
2022-08-01T06:50:38.272Z,22.70
2022-08-01T06:53:06.182Z,22.70
2022-08-01T06:55:34.073Z,22.80
2022-08-01T06:58:01.908Z,22.90
2022-08-01T07:00:31.128Z,23.00
2022-08-01T07:03:00.729Z,23.10
2022-08-01T07:05:28.996Z,23.10
2022-08-01T07:07:56.790Z,23.10
2022-08-01T07:10:24.727Z,23.10
2022-08-01T07:12:52.691Z,23.20
2022-08-01T07:15:22.922Z,23.20
2022-08-01T07:17:52.071Z,23.30
2022-08-01T07:20:20.277Z,23.40
2022-08-01T07:22:48.390Z,23.50
2022-08-01T07:25:16.462Z,23.60
2022-08-01T07:27:44.309Z,23.50
2022-08-01T07:30:12.988Z,23.70
2022-08-01T07:32:40.826Z,23.80
2022-08-01T07:35:11.002Z,23.90
2022-08-01T07:37:47.666Z,23.90
2022-08-01T07:40:17.939Z,23.90
2022-08-01T07:42:45.976Z,24.00
2022-08-01T07:45:14.586Z,24.10
2022-08-01T07:47:42.532Z,24.10
2022-08-01T07:50:13.423Z,24.30
2022-08-01T07:52:41.242Z,24.30
2022-08-01T07:55:10.449Z,24.60
2022-08-01T07:57:38.741Z,24.60
2022-08-01T08:00:09.334Z,24.60
2022-08-01T08:02:37.386Z,24.60
2022-08-01T08:05:05.764Z,24.70
2022-08-01T08:07:35.515Z,24.80
2022-08-01T08:10:03.399Z,24.80
2022-08-01T08:12:31.269Z,24.90
2022-08-01T08:15:01.288Z,24.90
2022-08-01T08:17:29.634Z,24.90
2022-08-01T08:20:04.704Z,25.00
2022-08-01T08:22:38.523Z,25.10
2022-08-01T08:25:08.219Z,25.20
2022-08-01T08:27:37.351Z,25.20
2022-08-01T08:30:08.412Z,25.20
2022-08-01T08:32:36.479Z,25.10
2022-08-01T08:35:04.798Z,25.10
2022-08-01T08:37:38.931Z,25.20
2022-08-01T08:40:09.892Z,25.30
2022-08-01T08:42:39.018Z,25.40
2022-08-01T08:45:12.060Z,25.40
2022-08-01T08:47:41.425Z,25.50
2022-08-01T08:50:10.323Z,25.50
2022-08-01T08:52:40.985Z,25.50
2022-08-01T08:55:11.858Z,25.50
2022-08-01T08:57:42.129Z,25.60
2022-08-01T09:00:11.973Z,25.60
2022-08-01T09:02:43.264Z,25.50
2022-08-01T09:05:16.083Z,25.60
2022-08-01T09:07:46.886Z,25.60
2022-08-01T09:10:16.134Z,25.70
2022-08-01T09:13:06.042Z,25.90
2022-08-01T09:15:45.404Z,26.00
2022-08-01T09:18:30.618Z,25.90
2022-08-01T09:21:15.151Z,26.10
2022-08-01T09:23:53.555Z,26.10
2022-08-01T09:26:31.757Z,26.10
2022-08-01T09:29:00.184Z,26.00
2022-08-01T09:31:38.378Z,26.20
2022-08-01T09:34:06.835Z,26.40
2022-08-01T09:36:49.214Z,26.40
2022-08-01T09:39:17.588Z,26.60
2022-08-01T09:41:47.159Z,26.70
2022-08-01T09:44:19.002Z,26.60
2022-08-01T09:47:07.475Z,26.70
2022-08-01T09:49:51.911Z,26.90
2022-08-01T09:52:25.909Z,26.80
2022-08-01T09:54:57.412Z,26.70
2022-08-01T09:57:27.036Z,26.80
2022-08-01T09:59:59.142Z,26.60
2022-08-01T10:02:34.133Z,26.70
2022-08-01T10:05:08.445Z,26.90
2022-08-01T10:07:42.726Z,26.90
2022-08-01T10:10:14.449Z,27.00
2022-08-01T10:12:45.668Z,27.10
2022-08-01T10:15:16.337Z,27.20
2022-08-01T10:17:54.502Z,27.10
2022-08-01T10:20:30.337Z,27.30
2022-08-01T10:23:01.909Z,27.30
2022-08-01T10:25:42.324Z,27.20
2022-08-01T10:28:23.755Z,27.20
2022-08-01T10:30:53.143Z,27.30
2022-08-01T10:33:51.199Z,27.40
2022-08-01T10:36:12.333Z,27.60
2022-08-01T10:38:40.733Z,27.70
2022-08-01T10:41:09.146Z,27.70
2022-08-01T10:43:38.691Z,27.80
2022-08-01T10:46:07.666Z,27.70
2022-08-01T10:48:45.002Z,27.90
2022-08-01T10:51:17.416Z,27.80
2022-08-01T10:53:50.365Z,27.30
2022-08-01T10:56:27.071Z,27.30
2022-08-01T10:59:06.250Z,27.40
2022-08-01T11:01:37.487Z,27.60
2022-08-01T11:04:13.913Z,27.50
2022-08-01T11:06:55.329Z,27.50
2022-08-01T11:09:40.571Z,27.60
2022-08-01T11:12:13.384Z,27.60
2022-08-01T11:15:30.177Z,27.50
2022-08-01T11:18:01.418Z,27.20
2022-08-01T11:20:32.105Z,26.70
2022-08-01T11:23:28.577Z,26.50
2022-08-01T11:26:18.791Z,26.70
2022-08-01T11:29:22.991Z,26.70
2022-08-01T11:31:53.670Z,27.10
2022-08-01T11:34:21.814Z,27.40
2022-08-01T11:36:59.293Z,27.60
2022-08-01T11:39:27.928Z,27.80
2022-08-01T11:42:17.517Z,28.00
2022-08-01T11:44:51.153Z,28.10
2022-08-01T11:47:21.453Z,28.00
2022-08-01T11:49:55.643Z,27.80
2022-08-01T11:52:28.401Z,27.90
2022-08-01T11:54:58.056Z,28.10
2022-08-01T11:57:32.456Z,27.90
2022-08-01T12:00:08.292Z,28.20
2022-08-01T12:02:38.388Z,28.20
2022-08-01T12:05:11.829Z,28.50
2022-08-01T12:07:41.967Z,28.40
2022-08-01T12:10:11.771Z,28.30
2022-08-01T12:12:46.392Z,28.20
2022-08-01T12:15:15.337Z,28.30
2022-08-01T12:17:57.331Z,28.20
2022-08-01T12:20:30.218Z,28.20
2022-08-01T12:22:59.963Z,28.30
2022-08-01T12:25:27.845Z,28.10
2022-08-01T12:27:57.041Z,28.50
2022-08-01T12:30:25.938Z,28.70
2022-08-01T12:32:55.981Z,28.80
2022-08-01T12:35:25.086Z,28.70
2022-08-01T12:37:54.358Z,28.50
2022-08-01T12:40:25.095Z,28.30
2022-08-01T12:42:54.595Z,28.40
2022-08-01T12:45:25.144Z,28.70
2022-08-01T12:47:55.853Z,28.90
2022-08-01T12:50:25.610Z,29.20
2022-08-01T12:52:53.694Z,29.20
2022-08-01T12:55:23.055Z,29.30
2022-08-01T12:57:53.898Z,29.20
2022-08-01T13:00:24.699Z,28.80
2022-08-01T13:03:02.866Z,28.60
2022-08-01T13:05:43.074Z,28.20
2022-08-01T13:08:13.507Z,27.70
2022-08-01T13:10:42.251Z,27.20
2022-08-01T13:13:10.943Z,27.00
2022-08-01T13:15:50.566Z,26.80
2022-08-01T13:18:28.903Z,26.30
2022-08-01T13:21:18.441Z,25.80
2022-08-01T13:24:04.165Z,25.20
2022-08-01T13:26:42.998Z,24.90
2022-08-01T13:29:13.372Z,24.50
2022-08-01T13:31:42.680Z,24.40
2022-08-01T13:34:12.708Z,24.50
2022-08-01T13:36:46.861Z,24.70
2022-08-01T13:39:34.299Z,24.70
2022-08-01T13:42:02.110Z,24.80
2022-08-01T13:44:29.917Z,24.90
2022-08-01T13:46:57.907Z,25.00
2022-08-01T13:49:27.153Z,25.00
2022-08-01T13:52:08.696Z,24.90
2022-08-01T13:54:37.305Z,24.90
2022-08-01T13:57:05.743Z,24.90
2022-08-01T13:59:33.689Z,24.80
2022-08-01T14:02:01.613Z,24.80
2022-08-01T14:04:30.764Z,24.70
2022-08-01T14:07:00.354Z,24.50
2022-08-01T14:09:32.266Z,24.50
2022-08-01T14:12:00.608Z,24.40
2022-08-01T14:14:28.619Z,24.40
2022-08-01T14:16:56.490Z,24.40
2022-08-01T14:19:37.633Z,24.40
2022-08-01T14:22:08.571Z,24.50
2022-08-01T14:24:36.615Z,24.50
2022-08-01T14:27:06.817Z,24.50
2022-08-01T14:30:01.198Z,24.40
2022-08-01T14:32:28.553Z,24.40
2022-08-01T14:34:56.540Z,24.30
2022-08-01T14:37:29.182Z,24.40
2022-08-01T14:39:59.131Z,24.50
2022-08-01T14:42:27.055Z,24.50
2022-08-01T14:44:54.892Z,24.60
2022-08-01T14:47:22.762Z,24.50
2022-08-01T14:49:51.707Z,24.50
2022-08-01T14:52:20.413Z,24.40
2022-08-01T14:54:49.595Z,24.30
2022-08-01T14:57:19.221Z,24.30
2022-08-01T14:59:49.021Z,24.20
2022-08-01T15:02:18.070Z,24.10
2022-08-01T15:04:46.122Z,24.10
2022-08-01T15:07:14.675Z,24.00
2022-08-01T15:09:42.886Z,23.90
2022-08-01T15:12:12.974Z,23.80
2022-08-01T15:14:50.825Z,23.80
2022-08-01T15:17:19.847Z,23.70
2022-08-01T15:19:48.518Z,23.80
2022-08-01T15:22:16.716Z,23.90
2022-08-01T15:24:45.180Z,23.90
2022-08-01T15:27:14.393Z,24.00
2022-08-01T15:29:42.680Z,24.00
2022-08-01T15:32:11.490Z,23.90
2022-08-01T15:34:40.317Z,23.50
2022-08-01T15:37:08.963Z,23.40
2022-08-01T15:39:37.549Z,23.10
2022-08-01T15:42:09.286Z,23.00
2022-08-01T15:44:38.767Z,22.80
2022-08-01T15:47:07.062Z,22.60
2022-08-01T15:49:36.986Z,22.60
2022-08-01T15:52:05.829Z,22.40
2022-08-01T15:54:34.543Z,22.40
2022-08-01T15:57:02.532Z,22.40
2022-08-01T15:59:30.650Z,22.30
2022-08-01T16:01:59.864Z,22.40
2022-08-01T16:04:29.881Z,22.30
2022-08-01T16:06:58.220Z,22.30
2022-08-01T16:09:26.767Z,22.20
2022-08-01T16:11:54.887Z,22.10
2022-08-01T16:14:22.751Z,22.10
2022-08-01T16:16:50.632Z,22.10
2022-08-01T16:19:19.916Z,22.20
2022-08-01T16:21:48.013Z,22.10
2022-08-01T16:24:15.932Z,22.00
2022-08-01T16:26:44.023Z,22.00
2022-08-01T16:29:11.822Z,22.00
2022-08-01T16:31:51.164Z,22.00
2022-08-01T16:34:29.055Z,22.00
2022-08-01T16:36:57.066Z,22.00
2022-08-01T16:39:25.515Z,22.00
2022-08-01T16:42:05.461Z,22.00
2022-08-01T16:44:34.548Z,22.00
2022-08-01T16:47:03.471Z,22.00
2022-08-01T16:49:33.044Z,22.10
2022-08-01T16:52:01.036Z,22.00
2022-08-01T16:54:28.981Z,22.10
2022-08-01T16:56:58.108Z,22.10
2022-08-01T16:59:40.985Z,22.10
2022-08-01T17:02:10.658Z,22.30
2022-08-01T17:04:40.161Z,22.20
2022-08-01T17:07:08.386Z,22.30
2022-08-01T17:09:39.902Z,22.50
2022-08-01T17:12:13.027Z,22.60
2022-08-01T17:14:42.337Z,22.70
2022-08-01T17:17:11.290Z,22.80
2022-08-01T17:19:40.699Z,22.90
2022-08-01T17:22:08.508Z,23.20
2022-08-01T17:24:36.322Z,23.30
2022-08-01T17:27:08.198Z,23.20
2022-08-01T17:29:43.325Z,23.20
2022-08-01T17:32:12.484Z,23.10
2022-08-01T17:34:42.095Z,23.00
2022-08-01T17:37:10.683Z,22.80
2022-08-01T17:39:40.021Z,22.60
2022-08-01T17:42:08.857Z,22.60
2022-08-01T17:44:36.665Z,22.50
2022-08-01T17:47:05.945Z,22.40
2022-08-01T17:49:53.736Z,22.20
2022-08-01T17:52:23.410Z,22.20
2022-08-01T17:54:53.968Z,22.10
2022-08-01T17:57:21.819Z,22.00
2022-08-01T17:59:50.520Z,21.90
2022-08-01T18:02:18.695Z,21.90
2022-08-01T18:04:46.815Z,22.00
2022-08-01T18:07:16.669Z,21.90
2022-08-01T18:09:46.463Z,21.80
2022-08-01T18:12:14.938Z,21.60
2022-08-01T18:14:43.935Z,21.70
2022-08-01T18:17:12.487Z,21.70
2022-08-01T18:19:40.825Z,21.70
2022-08-01T18:22:31.242Z,21.60
2022-08-01T18:25:08.781Z,21.50
2022-08-01T18:28:22.644Z,21.60
2022-08-01T18:30:25.409Z,21.50
2022-08-01T18:32:53.435Z,21.40
2022-08-01T18:35:22.482Z,21.40
2022-08-01T18:37:55.378Z,21.40
2022-08-01T18:40:24.719Z,21.40
2022-08-01T18:42:54.247Z,21.40
2022-08-01T18:45:22.315Z,21.30
2022-08-01T18:47:50.208Z,21.20
2022-08-01T18:50:18.069Z,21.20
2022-08-01T18:52:45.863Z,21.20
2022-08-01T18:55:13.698Z,21.20
2022-08-01T18:57:42.916Z,21.30
2022-08-01T19:00:13.633Z,21.30
2022-08-01T19:02:42.614Z,21.30
2022-08-01T19:05:11.640Z,21.20
2022-08-01T19:08:06.755Z,21.10
2022-08-01T19:10:27.466Z,21.10
2022-08-01T19:12:56.709Z,21.10
2022-08-01T19:15:24.511Z,20.90
2022-08-01T19:17:52.883Z,20.80
2022-08-01T19:20:20.716Z,20.80
2022-08-01T19:22:48.872Z,20.80
2022-08-01T19:25:16.912Z,20.60
2022-08-01T19:27:48.005Z,20.40
2022-08-01T19:30:18.129Z,20.40
2022-08-01T19:32:47.411Z,20.40
2022-08-01T19:35:17.193Z,20.40
2022-08-01T19:37:47.591Z,20.30
2022-08-01T19:40:27.035Z,20.30
2022-08-01T19:42:57.298Z,20.20
2022-08-01T19:45:30.201Z,20.00
2022-08-01T19:47:58.306Z,20.00
2022-08-01T19:50:26.866Z,19.90
2022-08-01T19:52:56.019Z,19.90
2022-08-01T19:55:25.280Z,19.80
2022-08-01T20:00:43.956Z,19.90
2022-08-01T20:03:15.886Z,19.90
2022-08-01T20:05:44.407Z,19.90
2022-08-01T20:08:13.258Z,19.90
2022-08-01T20:10:41.751Z,19.90
2022-08-01T20:13:11.304Z,19.90
2022-08-01T20:15:39.611Z,19.80
2022-08-01T20:18:08.940Z,19.80
2022-08-01T20:20:38.660Z,19.70
2022-08-01T20:23:18.467Z,19.80
2022-08-01T20:25:50.357Z,19.80
2022-08-01T20:28:23.822Z,19.80
2022-08-01T20:30:55.522Z,19.70
2022-08-01T20:33:24.842Z,19.70
2022-08-01T20:35:54.259Z,19.60
2022-08-01T20:38:23.883Z,19.70
2022-08-01T20:40:52.957Z,19.70
2022-08-01T20:43:22.148Z,19.60
2022-08-01T20:45:51.353Z,19.60
2022-08-01T20:48:20.251Z,19.50
2022-08-01T20:51:08.111Z,19.60
2022-08-01T20:53:40.643Z,19.50
2022-08-01T20:56:13.066Z,19.50
2022-08-01T20:58:58.650Z,19.50
2022-08-01T21:01:30.310Z,19.50
2022-08-01T21:04:11.953Z,19.40
2022-08-01T21:06:45.085Z,19.40
2022-08-01T21:09:19.266Z,19.40
2022-08-01T21:11:51.587Z,19.30
2022-08-01T21:14:21.924Z,19.30
2022-08-01T21:16:59.449Z,19.30
2022-08-01T21:19:28.717Z,19.20
2022-08-01T21:22:09.965Z,19.20
2022-08-01T21:24:58.413Z,19.20
2022-08-01T21:27:33.810Z,19.20
2022-08-01T21:30:04.646Z,19.10
2022-08-01T21:32:34.165Z,19.20
2022-08-01T21:35:03.298Z,19.10
2022-08-01T21:37:33.333Z,19.10
2022-08-01T21:40:09.460Z,19.10
2022-08-01T21:42:40.115Z,19.00
2022-08-01T21:45:10.491Z,19.00
2022-08-01T21:47:38.671Z,18.90
2022-08-01T21:50:09.298Z,18.90
2022-08-01T21:52:44.630Z,18.80
2022-08-01T21:55:21.558Z,18.70
2022-08-01T21:58:04.419Z,18.80
2022-08-01T22:00:34.106Z,18.70
2022-08-01T22:03:14.477Z,18.60
2022-08-01T22:05:51.125Z,18.60
2022-08-01T22:08:28.885Z,18.50
2022-08-01T22:11:01.132Z,18.40
2022-08-01T22:13:29.198Z,18.30
2022-08-01T22:15:58.372Z,18.30
2022-08-01T22:18:27.495Z,18.20
2022-08-01T22:20:57.439Z,18.20
2022-08-01T22:23:27.161Z,18.20
2022-08-01T22:25:56.071Z,18.10
2022-08-01T22:28:25.098Z,18.00
2022-08-01T22:30:54.407Z,17.90
2022-08-01T22:33:22.302Z,17.90
2022-08-01T22:35:52.575Z,17.80
2022-08-01T22:38:22.535Z,17.80
2022-08-01T22:40:54.646Z,17.70
2022-08-01T22:43:30.533Z,17.60
2022-08-01T22:46:26.181Z,17.60
2022-08-01T22:49:00.642Z,17.60
2022-08-01T22:51:37.495Z,17.60
2022-08-01T22:54:09.641Z,17.60
2022-08-01T22:56:43.146Z,17.60
2022-08-01T22:59:16.156Z,17.60
2022-08-01T23:01:48.444Z,17.60
2022-08-01T23:04:24.248Z,17.60
2022-08-01T23:07:05.541Z,17.70
2022-08-01T23:09:52.552Z,17.70
2022-08-01T23:12:26.319Z,17.50
2022-08-01T23:14:56.340Z,17.50
2022-08-01T23:17:26.633Z,17.50
2022-08-01T23:19:58.326Z,17.60
2022-08-01T23:22:29.975Z,17.50
2022-08-01T23:25:04.887Z,17.50
2022-08-01T23:27:51.776Z,17.50
2022-08-01T23:30:27.401Z,17.50
2022-08-01T23:32:55.850Z,17.40
2022-08-01T23:35:24.173Z,17.40
2022-08-01T23:37:52.635Z,17.50
2022-08-01T23:40:20.840Z,17.50
2022-08-01T23:42:54.667Z,17.60
2022-08-01T23:45:23.392Z,17.60
2022-08-01T23:47:51.298Z,17.50
2022-08-01T23:50:19.240Z,17.50
2022-08-01T23:52:50.873Z,17.50
2022-08-01T23:55:19.583Z,17.50
2022-08-01T23:57:55.930Z,17.50
